Terminal Aerodrome Forecast
Issued by NWS Cleveland, OH

Home | Current Version | Previous Version | Graphics & Text | Print | Product List | Glossary Off
Versions: 1 2 3 4 5 6 7 8 9 10 11 12 13 14 15 16 17 18 19 20 21 22 23 24 25 26 27 28 29

000
FTUS41 KCLE 030500
TAFCLE
TAF
KCLE 030520Z 0306/0412 20003KT P6SM SCT250
      TEMPO 0309/0313 4SM BR
     FM031400 20003KT P6SM SCT035
     FM031900 36006KT P6SM SKC
     FM040100 VRB03KT P6SM SKC
     FM040800 18004KT 5SM BR SCT250=

USA.gov is the U.S. government's official web portal to all federal, state and local government web resources and services.